Overseas Houston — WWAA — position and weather

sailwx.info

Track history (hours):
 
Tides and Currents Weather Stations Pressure Air Temp Water Temp Dewpoint Dewpoint Depression Visibility Wind Speed Wind Dir Waves Ship Positions

Overseas Houston

Owner: ASC Leasing I, Inc., Philadelphia, PA. More information available from US FCC via Universal Licensing System and Coast Guard Vessel Documentation Center.

Last reported at 2015-Jul-29 17:15 UTC. Time now 2015-Aug-03 23:26 UTC.
Position N 25°21' W 080°01'.

Type: Tanker. MMSI: 367109000.

Date/timePositionNaut miles runAvg speedWind from/ knotsBaromVisibWave heightAir tempDewpointWater temp
2015-Jul-29 17:15N 25°21' W 080°01'811.0
2015-Jul-29 16:33N 25°29' W 080°00'1111.1
2015-Jul-29 15:33N 25°40' W 080°01'1111.0
2015-Jul-29 14:33N 25°51' W 080°01'1110.8
2015-Jul-29 13:33N 26°02' W 080°01'7 6.8
2015-Jul-29 12:31N 26°06' W 080°07'0 0.0
2015-Jul-29 11:31N 26°06' W 080°07'0 0.0
2015-Jul-29 10:31N 26°06' W 080°07'0 0.0
2015-Jul-29 09:31N 26°06' W 080°07'0 0.0
2015-Jul-29 08:31N 26°06' W 080°07'0 0.0
2015-Jul-29 07:31N 26°06' W 080°07'0 0.0
2015-Jul-29 06:31N 26°06' W 080°07'0 0.0
2015-Jul-29 05:19N 26°06' W 080°07'0 0.0
2015-Jul-29 04:31N 26°06' W 080°07'0 0.0
2015-Jul-29 03:31N 26°06' W 080°07'0 0.0
2015-Jul-29 02:31N 26°06' W 080°07'0 0.0
2015-Jul-29 01:31N 26°06' W 080°07'0 0.0
2015-Jul-29 00:22N 26°06' W 080°07'0 0.0
2015-Jul-28 23:22N 26°06' W 080°07'0 0.0
2015-Jul-28 22:22N 26°06' W 080°07'0 0.0
2015-Jul-28 21:25N 26°06' W 080°07'0 0.0
2015-Jul-28 20:25N 26°06' W 080°07'0 0.0
2015-Jul-28 19:25N 26°06' W 080°07'0 0.0
2015-Jul-28 18:25N 26°06' W 080°07'0 0.0
2015-Jul-28 17:25N 26°06' W 080°07'0 0.0
2015-Jul-28 16:28N 26°06' W 080°07'0 0.0
2015-Jul-28 15:27N 26°06' W 080°07'0 0.0
2015-Jul-28 14:27N 26°06' W 080°07'0 0.0
2015-Jul-28 13:27N 26°06' W 080°07'0 0.0
2015-Jul-28 12:27N 26°06' W 080°07'0 0.0
2015-Jul-28 00:18N 26°06' W 080°07'0 0.0
2015-Jul-27 23:33N 26°06' W 080°07'0 0.0
2015-Jul-27 22:33N 26°06' W 080°07'0 0.0
2015-Jul-27 21:33N 26°06' W 080°07'0 0.0
2015-Jul-27 20:33N 26°06' W 080°07'0 0.0
2015-Jul-27 19:33N 26°06' W 080°07'0 0.0
2015-Jul-27 18:24N 26°06' W 080°07'0 0.0
2015-Jul-27 17:24N 26°06' W 080°07'0 0.0
2015-Jul-27 16:24N 26°06' W 080°07'0 0.0
2015-Jul-27 15:27N 26°06' W 080°07'0 0.0
2015-Jul-27 14:27N 26°06' W 080°07'0 0.0
2015-Jul-27 13:27N 26°06' W 080°07'0 0.0
2015-Jul-27 12:27N 26°06' W 080°07'0 0.0
2015-Jul-27 11:27N 26°06' W 080°07'0 0.0
2015-Jul-27 10:30N 26°06' W 080°07'0 0.0
2015-Jul-27 09:30N 26°06' W 080°07'0 0.0
2015-Jul-27 08:30N 26°06' W 080°07'0 0.0
2015-Jul-27 07:30N 26°06' W 080°07'3 2.8
2015-Jul-27 06:33N 26°06' W 080°04'1 1.1
2015-Jul-27 05:33N 26°07' W 080°05'0 0.0
2015-Jul-27 04:30N 26°07' W 080°05'0 0.0
2015-Jul-27 03:30N 26°07' W 080°05'0 0.0
2015-Jul-27 02:30N 26°07' W 080°05'0 0.0
2015-Jul-27 01:33N 26°07' W 080°05'0 0.0
2015-Jul-27 00:27N 26°07' W 080°04'0 0.1
2015-Jul-26 23:30N 26°07' W 080°04'0 0.1
2015-Jul-26 22:33N 26°07' W 080°04'0 0.0
2015-Jul-26 21:33N 26°07' W 080°04'0 0.0
2015-Jul-26 20:30N 26°07' W 080°04'0 0.0
2015-Jul-26 19:30N 26°07' W 080°04'0 0.4
2015-Jul-26 18:33N 26°08' W 080°04'7 6.5
2015-Jul-26 17:33N 26°03' W 079°59'1515.1
2015-Jul-26 16:34N 25°48' W 079°57'1818.0
2015-Jul-26 15:34N 25°30' W 079°57'59212.5
2015-Jul-24 16:18N 29°52' W 089°57'6 7.9
2015-Jul-24 15:34N 29°57' W 090°01'  
2015-Jul-22 04:27N 29°55' W 090°04'  
2015-Jul-19 18:34N 25°24' W 080°01'1212.2
2015-Jul-19 17:33N 25°36' W 080°00'  
Track history (hours):
 
Tides and Currents Weather Stations Pressure Air Temp Water Temp Dewpoint Dewpoint Depression Visibility Wind Speed Wind Dir Waves Ship Positions

Overseas Houston

Owner: ASC Leasing I, Inc., Philadelphia, PA. More information available from US FCC via Universal Licensing System and Coast Guard Vessel Documentation Center.

Last reported at 2015-Jul-29 17:15 UTC. Time now 2015-Aug-03 23:26 UTC.
Position N 25°21' W 080°01'.

Type: Tanker. MMSI: 367109000.

Date/timePositionNaut miles runAvg speedWind from/ knotsBaromVisibWave heightAir tempDewpointWater temp
2015-Jul-29 17:15N 25°21' W 080°01'811.0
2015-Jul-29 16:33N 25°29' W 080°00'1111.1
2015-Jul-29 15:33N 25°40' W 080°01'1111.0
2015-Jul-29 14:33N 25°51' W 080°01'1110.8
2015-Jul-29 13:33N 26°02' W 080°01'7 6.8
2015-Jul-29 12:31N 26°06' W 080°07'0 0.0
2015-Jul-29 11:31N 26°06' W 080°07'0 0.0
2015-Jul-29 10:31N 26°06' W 080°07'0 0.0
2015-Jul-29 09:31N 26°06' W 080°07'0 0.0
2015-Jul-29 08:31N 26°06' W 080°07'0 0.0
2015-Jul-29 07:31N 26°06' W 080°07'0 0.0
2015-Jul-29 06:31N 26°06' W 080°07'0 0.0
2015-Jul-29 05:19N 26°06' W 080°07'0 0.0
2015-Jul-29 04:31N 26°06' W 080°07'0 0.0
2015-Jul-29 03:31N 26°06' W 080°07'0 0.0
2015-Jul-29 02:31N 26°06' W 080°07'0 0.0
2015-Jul-29 01:31N 26°06' W 080°07'0 0.0
2015-Jul-29 00:22N 26°06' W 080°07'0 0.0
2015-Jul-28 23:22N 26°06' W 080°07'0 0.0
2015-Jul-28 22:22N 26°06' W 080°07'0 0.0
2015-Jul-28 21:25N 26°06' W 080°07'0 0.0
2015-Jul-28 20:25N 26°06' W 080°07'0 0.0
2015-Jul-28 19:25N 26°06' W 080°07'0 0.0
2015-Jul-28 18:25N 26°06' W 080°07'0 0.0
2015-Jul-28 17:25N 26°06' W 080°07'0 0.0
2015-Jul-28 16:28N 26°06' W 080°07'0 0.0
2015-Jul-28 15:27N 26°06' W 080°07'0 0.0
2015-Jul-28 14:27N 26°06' W 080°07'0 0.0
2015-Jul-28 13:27N 26°06' W 080°07'0 0.0
2015-Jul-28 12:27N 26°06' W 080°07'0 0.0
2015-Jul-28 00:18N 26°06' W 080°07'0 0.0
2015-Jul-27 23:33N 26°06' W 080°07'0 0.0
2015-Jul-27 22:33N 26°06' W 080°07'0 0.0
2015-Jul-27 21:33N 26°06' W 080°07'0 0.0
2015-Jul-27 20:33N 26°06' W 080°07'0 0.0
2015-Jul-27 19:33N 26°06' W 080°07'0 0.0
2015-Jul-27 18:24N 26°06' W 080°07'0 0.0
2015-Jul-27 17:24N 26°06' W 080°07'0 0.0
2015-Jul-27 16:24N 26°06' W 080°07'0 0.0
2015-Jul-27 15:27N 26°06' W 080°07'0 0.0
2015-Jul-27 14:27N 26°06' W 080°07'0 0.0
2015-Jul-27 13:27N 26°06' W 080°07'0 0.0
2015-Jul-27 12:27N 26°06' W 080°07'0 0.0
2015-Jul-27 11:27N 26°06' W 080°07'0 0.0
2015-Jul-27 10:30N 26°06' W 080°07'0 0.0
2015-Jul-27 09:30N 26°06' W 080°07'0 0.0
2015-Jul-27 08:30N 26°06' W 080°07'0 0.0
2015-Jul-27 07:30N 26°06' W 080°07'3 2.8
2015-Jul-27 06:33N 26°06' W 080°04'1 1.1
2015-Jul-27 05:33N 26°07' W 080°05'0 0.0
2015-Jul-27 04:30N 26°07' W 080°05'0 0.0
2015-Jul-27 03:30N 26°07' W 080°05'0 0.0
2015-Jul-27 02:30N 26°07' W 080°05'0 0.0
2015-Jul-27 01:33N 26°07' W 080°05'0 0.0
2015-Jul-27 00:27N 26°07' W 080°04'0 0.1
2015-Jul-26 23:30N 26°07' W 080°04'0 0.1
2015-Jul-26 22:33N 26°07' W 080°04'0 0.0
2015-Jul-26 21:33N 26°07' W 080°04'0 0.0
2015-Jul-26 20:30N 26°07' W 080°04'0 0.0
2015-Jul-26 19:30N 26°07' W 080°04'0 0.4
2015-Jul-26 18:33N 26°08' W 080°04'7 6.5
2015-Jul-26 17:33N 26°03' W 079°59'1515.1
2015-Jul-26 16:34N 25°48' W 079°57'1818.0
2015-Jul-26 15:34N 25°30' W 079°57'59212.5
2015-Jul-24 16:18N 29°52' W 089°57'6 7.9
2015-Jul-24 15:34N 29°57' W 090°01'  
2015-Jul-22 04:27N 29°55' W 090°04'  
2015-Jul-19 18:34N 25°24' W 080°01'1212.2
2015-Jul-19 17:33N 25°36' W 080°00'  

Dump ship's entire track history